sensor_id;sensor_type;location;lat;lon;timestamp;temperature;humidity
19007;DHT22;9636;47.382;8.480;2023-05-19T00:02:16;18.50;99.90
19007;DHT22;9636;47.382;8.480;2023-05-19T00:04:45;18.50;99.90
19007;DHT22;9636;47.382;8.480;2023-05-19T00:07:16;18.50;99.90
19007;DHT22;9636;47.382;8.480;2023-05-19T00:09:43;18.50;99.90
19007;DHT22;9636;47.382;8.480;2023-05-19T00:12:13;18.50;99.90
19007;DHT22;9636;47.382;8.480;2023-05-19T00:14:41;18.50;99.90
19007;DHT22;9636;47.382;8.480;2023-05-19T00:17:08;18.40;99.90
19007;DHT22;9636;47.382;8.480;2023-05-19T00:19:35;18.40;99.90
19007;DHT22;9636;47.382;8.480;2023-05-19T00:22:02;18.40;99.90
19007;DHT22;9636;47.382;8.480;2023-05-19T00:24:29;18.40;99.90
19007;DHT22;9636;47.382;8.480;2023-05-19T00:26:56;18.40;99.90
19007;DHT22;9636;47.382;8.480;2023-05-19T00:29:24;18.40;99.90
19007;DHT22;9636;47.382;8.480;2023-05-19T00:31:51;18.40;99.90
19007;DHT22;9636;47.382;8.480;2023-05-19T00:34:18;18.40;99.90
19007;DHT22;9636;47.382;8.480;2023-05-19T00:36:44;18.30;99.90
19007;DHT22;9636;47.382;8.480;2023-05-19T00:39:11;18.30;99.90
19007;DHT22;9636;47.382;8.480;2023-05-19T00:41:38;18.30;99.90
19007;DHT22;9636;47.382;8.480;2023-05-19T00:44:06;18.30;99.90
19007;DHT22;9636;47.382;8.480;2023-05-19T00:46:34;18.30;99.90
19007;DHT22;9636;47.382;8.480;2023-05-19T00:49:02;18.30;99.90
19007;DHT22;9636;47.382;8.480;2023-05-19T00:51:30;18.30;99.90
19007;DHT22;9636;47.382;8.480;2023-05-19T00:53:57;18.20;99.90
19007;DHT22;9636;47.382;8.480;2023-05-19T00:56:24;18.20;99.90
19007;DHT22;9636;47.382;8.480;2023-05-19T00:58:51;18.20;99.90
19007;DHT22;9636;47.382;8.480;2023-05-19T01:01:18;18.20;99.90
19007;DHT22;9636;47.382;8.480;2023-05-19T01:03:47;18.10;99.90
19007;DHT22;9636;47.382;8.480;2023-05-19T01:06:14;18.20;99.90
19007;DHT22;9636;47.382;8.480;2023-05-19T01:08:43;18.10;99.90
19007;DHT22;9636;47.382;8.480;2023-05-19T01:11:11;18.10;99.90
19007;DHT22;9636;47.382;8.480;2023-05-19T01:13:37;18.10;99.90
19007;DHT22;9636;47.382;8.480;2023-05-19T01:16:08;18.10;99.90
19007;DHT22;9636;47.382;8.480;2023-05-19T01:18:43;18.10;99.90
19007;DHT22;9636;47.382;8.480;2023-05-19T01:21:43;18.10;99.90
19007;DHT22;9636;47.382;8.480;2023-05-19T01:24:49;18.00;99.90
19007;DHT22;9636;47.382;8.480;2023-05-19T01:27:41;18.00;99.90
19007;DHT22;9636;47.382;8.480;2023-05-19T01:30:26;18.00;99.90
19007;DHT22;9636;47.382;8.480;2023-05-19T01:32:57;18.00;99.90
19007;DHT22;9636;47.382;8.480;2023-05-19T01:35:25;18.00;99.90
19007;DHT22;9636;47.382;8.480;2023-05-19T01:37:54;18.00;99.90
19007;DHT22;9636;47.382;8.480;2023-05-19T01:40:22;18.00;99.90
19007;DHT22;9636;47.382;8.480;2023-05-19T01:42:52;18.00;99.90
19007;DHT22;9636;47.382;8.480;2023-05-19T01:45:19;17.90;99.90
19007;DHT22;9636;47.382;8.480;2023-05-19T01:47:51;17.90;99.90
19007;DHT22;9636;47.382;8.480;2023-05-19T01:50:18;17.80;99.90
19007;DHT22;9636;47.382;8.480;2023-05-19T01:52:45;17.90;99.90
19007;DHT22;9636;47.382;8.480;2023-05-19T01:55:12;17.80;99.90
19007;DHT22;9636;47.382;8.480;2023-05-19T01:57:45;17.90;99.90
19007;DHT22;9636;47.382;8.480;2023-05-19T02:00:18;17.80;99.90
19007;DHT22;9636;47.382;8.480;2023-05-19T02:02:55;17.80;99.90
19007;DHT22;9636;47.382;8.480;2023-05-19T02:05:33;17.80;99.90
19007;DHT22;9636;47.382;8.480;2023-05-19T02:08:08;17.80;99.90
19007;DHT22;9636;47.382;8.480;2023-05-19T02:10:40;17.80;99.90
19007;DHT22;9636;47.382;8.480;2023-05-19T02:13:10;17.80;99.90
19007;DHT22;9636;47.382;8.480;2023-05-19T02:15:40;17.70;99.90
19007;DHT22;9636;47.382;8.480;2023-05-19T02:18:10;17.70;99.90
19007;DHT22;9636;47.382;8.480;2023-05-19T02:20:38;17.70;99.90
19007;DHT22;9636;47.382;8.480;2023-05-19T02:23:05;17.70;99.90
19007;DHT22;9636;47.382;8.480;2023-05-19T02:25:32;17.70;99.90
19007;DHT22;9636;47.382;8.480;2023-05-19T02:27:59;17.70;99.90
19007;DHT22;9636;47.382;8.480;2023-05-19T02:30:26;17.70;99.90
19007;DHT22;9636;47.382;8.480;2023-05-19T02:32:52;17.70;99.90
19007;DHT22;9636;47.382;8.480;2023-05-19T02:35:21;17.60;99.90
19007;DHT22;9636;47.382;8.480;2023-05-19T02:37:47;17.60;99.90
19007;DHT22;9636;47.382;8.480;2023-05-19T02:40:14;17.60;99.90
19007;DHT22;9636;47.382;8.480;2023-05-19T02:42:43;17.60;99.90
19007;DHT22;9636;47.382;8.480;2023-05-19T02:45:10;17.60;99.90
19007;DHT22;9636;47.382;8.480;2023-05-19T02:47:37;17.50;99.90
19007;DHT22;9636;47.382;8.480;2023-05-19T02:50:07;17.50;99.90
19007;DHT22;9636;47.382;8.480;2023-05-19T02:52:35;17.50;99.90
19007;DHT22;9636;47.382;8.480;2023-05-19T02:55:02;17.50;99.90
19007;DHT22;9636;47.382;8.480;2023-05-19T02:57:29;17.50;99.90
19007;DHT22;9636;47.382;8.480;2023-05-19T02:59:57;17.50;99.90
19007;DHT22;9636;47.382;8.480;2023-05-19T03:02:24;17.50;99.90
19007;DHT22;9636;47.382;8.480;2023-05-19T03:04:51;17.50;99.90
19007;DHT22;9636;47.382;8.480;2023-05-19T03:07:18;17.50;99.90
19007;DHT22;9636;47.382;8.480;2023-05-19T03:09:50;17.40;99.90
19007;DHT22;9636;47.382;8.480;2023-05-19T03:12:17;17.40;99.90
19007;DHT22;9636;47.382;8.480;2023-05-19T03:14:45;17.40;99.90
19007;DHT22;9636;47.382;8.480;2023-05-19T03:17:12;17.40;99.90
19007;DHT22;9636;47.382;8.480;2023-05-19T03:19:38;17.40;99.90
19007;DHT22;9636;47.382;8.480;2023-05-19T03:22:05;17.40;99.90
19007;DHT22;9636;47.382;8.480;2023-05-19T03:24:32;17.30;99.90
19007;DHT22;9636;47.382;8.480;2023-05-19T03:27:00;17.30;99.90
19007;DHT22;9636;47.382;8.480;2023-05-19T03:29:29;17.30;99.90
19007;DHT22;9636;47.382;8.480;2023-05-19T03:31:56;17.30;99.90
19007;DHT22;9636;47.382;8.480;2023-05-19T03:34:24;17.30;99.90
19007;DHT22;9636;47.382;8.480;2023-05-19T03:36:51;17.30;99.90
19007;DHT22;9636;47.382;8.480;2023-05-19T03:39:17;17.30;99.90
19007;DHT22;9636;47.382;8.480;2023-05-19T03:41:44;17.30;99.90
19007;DHT22;9636;47.382;8.480;2023-05-19T03:44:12;17.30;99.90
19007;DHT22;9636;47.382;8.480;2023-05-19T03:46:39;17.30;99.90
19007;DHT22;9636;47.382;8.480;2023-05-19T03:49:06;17.20;99.90
19007;DHT22;9636;47.382;8.480;2023-05-19T03:51:33;17.20;99.90
19007;DHT22;9636;47.382;8.480;2023-05-19T03:54:01;17.20;99.90
19007;DHT22;9636;47.382;8.480;2023-05-19T03:56:27;17.20;99.90
19007;DHT22;9636;47.382;8.480;2023-05-19T03:58:55;17.20;99.90
19007;DHT22;9636;47.382;8.480;2023-05-19T04:01:23;17.20;99.90
19007;DHT22;9636;47.382;8.480;2023-05-19T04:03:50;17.20;99.90
19007;DHT22;9636;47.382;8.480;2023-05-19T04:06:17;17.20;99.90
19007;DHT22;9636;47.382;8.480;2023-05-19T04:08:44;17.20;99.90
19007;DHT22;9636;47.382;8.480;2023-05-19T04:11:11;17.20;99.90
19007;DHT22;9636;47.382;8.480;2023-05-19T04:13:38;17.10;99.90
19007;DHT22;9636;47.382;8.480;2023-05-19T04:16:05;17.20;99.90
19007;DHT22;9636;47.382;8.480;2023-05-19T04:18:34;17.10;99.90
19007;DHT22;9636;47.382;8.480;2023-05-19T04:21:00;17.20;99.90
19007;DHT22;9636;47.382;8.480;2023-05-19T04:23:27;17.10;99.90
19007;DHT22;9636;47.382;8.480;2023-05-19T04:25:54;17.10;99.90
19007;DHT22;9636;47.382;8.480;2023-05-19T04:28:22;17.10;99.90
19007;DHT22;9636;47.382;8.480;2023-05-19T04:30:49;17.20;99.90
19007;DHT22;9636;47.382;8.480;2023-05-19T04:33:16;17.20;99.90
19007;DHT22;9636;47.382;8.480;2023-05-19T04:35:45;17.10;99.90
19007;DHT22;9636;47.382;8.480;2023-05-19T04:38:14;17.20;99.90
19007;DHT22;9636;47.382;8.480;2023-05-19T04:40:43;17.20;99.90
19007;DHT22;9636;47.382;8.480;2023-05-19T04:43:10;17.20;99.90
19007;DHT22;9636;47.382;8.480;2023-05-19T04:45:39;17.20;99.90
19007;DHT22;9636;47.382;8.480;2023-05-19T04:48:07;17.20;99.90
19007;DHT22;9636;47.382;8.480;2023-05-19T04:50:33;17.20;99.90
19007;DHT22;9636;47.382;8.480;2023-05-19T04:53:04;17.30;99.90
19007;DHT22;9636;47.382;8.480;2023-05-19T04:55:31;17.30;99.90
19007;DHT22;9636;47.382;8.480;2023-05-19T04:57:58;17.30;99.90
19007;DHT22;9636;47.382;8.480;2023-05-19T05:00:25;17.30;99.90
19007;DHT22;9636;47.382;8.480;2023-05-19T05:02:52;17.30;99.90
19007;DHT22;9636;47.382;8.480;2023-05-19T05:05:22;17.30;99.90
19007;DHT22;9636;47.382;8.480;2023-05-19T05:07:48;17.30;99.90
19007;DHT22;9636;47.382;8.480;2023-05-19T05:10:17;17.30;99.90
19007;DHT22;9636;47.382;8.480;2023-05-19T05:12:44;17.40;99.90
19007;DHT22;9636;47.382;8.480;2023-05-19T05:15:12;17.40;99.90
19007;DHT22;9636;47.382;8.480;2023-05-19T05:17:39;17.40;99.90
19007;DHT22;9636;47.382;8.480;2023-05-19T05:20:07;17.40;99.90
19007;DHT22;9636;47.382;8.480;2023-05-19T05:22:34;17.40;99.90
19007;DHT22;9636;47.382;8.480;2023-05-19T05:25:04;17.40;99.90
19007;DHT22;9636;47.382;8.480;2023-05-19T05:27:32;17.50;99.90
19007;DHT22;9636;47.382;8.480;2023-05-19T05:29:59;17.50;99.90
19007;DHT22;9636;47.382;8.480;2023-05-19T05:32:26;17.50;99.90
19007;DHT22;9636;47.382;8.480;2023-05-19T05:34:52;17.50;99.90
19007;DHT22;9636;47.382;8.480;2023-05-19T05:37:22;17.50;99.90
19007;DHT22;9636;47.382;8.480;2023-05-19T05:39:49;17.50;99.90
19007;DHT22;9636;47.382;8.480;2023-05-19T05:42:15;17.50;99.90
19007;DHT22;9636;47.382;8.480;2023-05-19T05:44:44;17.50;99.90
19007;DHT22;9636;47.382;8.480;2023-05-19T05:47:11;17.50;99.90
19007;DHT22;9636;47.382;8.480;2023-05-19T05:49:39;17.50;99.90
19007;DHT22;9636;47.382;8.480;2023-05-19T05:52:07;17.50;99.90
19007;DHT22;9636;47.382;8.480;2023-05-19T05:54:36;17.50;99.90
19007;DHT22;9636;47.382;8.480;2023-05-19T05:57:03;17.60;99.90
19007;DHT22;9636;47.382;8.480;2023-05-19T05:59:30;17.50;99.90
19007;DHT22;9636;47.382;8.480;2023-05-19T06:02:00;17.50;99.90
19007;DHT22;9636;47.382;8.480;2023-05-19T06:04:26;17.50;99.90
19007;DHT22;9636;47.382;8.480;2023-05-19T06:06:53;17.60;99.90
19007;DHT22;9636;47.382;8.480;2023-05-19T06:09:25;17.60;99.90
19007;DHT22;9636;47.382;8.480;2023-05-19T06:11:52;17.50;99.90
19007;DHT22;9636;47.382;8.480;2023-05-19T06:14:18;17.50;99.90
19007;DHT22;9636;47.382;8.480;2023-05-19T06:16:45;17.50;99.90
19007;DHT22;9636;47.382;8.480;2023-05-19T06:19:14;17.50;99.90
19007;DHT22;9636;47.382;8.480;2023-05-19T06:21:40;17.70;99.90
19007;DHT22;9636;47.382;8.480;2023-05-19T06:24:07;17.70;99.90
19007;DHT22;9636;47.382;8.480;2023-05-19T06:26:34;17.80;99.90
19007;DHT22;9636;47.382;8.480;2023-05-19T06:29:01;17.80;99.90
19007;DHT22;9636;47.382;8.480;2023-05-19T06:31:28;17.90;99.90
19007;DHT22;9636;47.382;8.480;2023-05-19T06:33:55;17.90;99.90
19007;DHT22;9636;47.382;8.480;2023-05-19T06:36:24;17.90;99.90
19007;DHT22;9636;47.382;8.480;2023-05-19T06:38:50;18.00;99.90
19007;DHT22;9636;47.382;8.480;2023-05-19T06:41:17;17.90;99.90
19007;DHT22;9636;47.382;8.480;2023-05-19T06:43:44;18.00;99.90
19007;DHT22;9636;47.382;8.480;2023-05-19T06:46:11;18.00;99.90
19007;DHT22;9636;47.382;8.480;2023-05-19T06:48:37;18.00;99.90
19007;DHT22;9636;47.382;8.480;2023-05-19T06:51:04;18.10;99.90
19007;DHT22;9636;47.382;8.480;2023-05-19T06:53:33;18.10;99.90
19007;DHT22;9636;47.382;8.480;2023-05-19T06:56:00;18.10;99.90
19007;DHT22;9636;47.382;8.480;2023-05-19T06:58:27;18.20;99.90
19007;DHT22;9636;47.382;8.480;2023-05-19T07:00:53;18.20;99.90
19007;DHT22;9636;47.382;8.480;2023-05-19T07:03:20;18.20;99.90
19007;DHT22;9636;47.382;8.480;2023-05-19T07:05:47;18.20;99.90
19007;DHT22;9636;47.382;8.480;2023-05-19T07:08:14;18.20;99.90
19007;DHT22;9636;47.382;8.480;2023-05-19T07:10:42;18.20;99.90
19007;DHT22;9636;47.382;8.480;2023-05-19T07:13:09;18.30;99.90
19007;DHT22;9636;47.382;8.480;2023-05-19T07:15:36;18.30;99.90
19007;DHT22;9636;47.382;8.480;2023-05-19T07:18:02;18.30;99.90
19007;DHT22;9636;47.382;8.480;2023-05-19T07:20:29;18.40;99.90
19007;DHT22;9636;47.382;8.480;2023-05-19T07:22:56;18.40;99.90
19007;DHT22;9636;47.382;8.480;2023-05-19T07:25:23;18.50;99.90
19007;DHT22;9636;47.382;8.480;2023-05-19T07:27:52;18.50;99.90
19007;DHT22;9636;47.382;8.480;2023-05-19T07:30:19;18.50;99.90
19007;DHT22;9636;47.382;8.480;2023-05-19T07:32:46;18.60;99.90
19007;DHT22;9636;47.382;8.480;2023-05-19T07:35:13;18.60;99.90
19007;DHT22;9636;47.382;8.480;2023-05-19T07:37:40;18.60;99.90
19007;DHT22;9636;47.382;8.480;2023-05-19T07:40:07;18.60;99.90
19007;DHT22;9636;47.382;8.480;2023-05-19T07:42:34;18.60;99.90
19007;DHT22;9636;47.382;8.480;2023-05-19T07:45:03;18.70;99.90
19007;DHT22;9636;47.382;8.480;2023-05-19T07:47:30;18.80;99.90
19007;DHT22;9636;47.382;8.480;2023-05-19T07:49:57;18.90;99.90
19007;DHT22;9636;47.382;8.480;2023-05-19T07:52:24;18.90;99.90
19007;DHT22;9636;47.382;8.480;2023-05-19T07:54:51;19.00;99.90
19007;DHT22;9636;47.382;8.480;2023-05-19T07:57:18;19.10;99.90
19007;DHT22;9636;47.382;8.480;2023-05-19T07:59:45;19.10;99.90
19007;DHT22;9636;47.382;8.480;2023-05-19T08:02:13;19.20;99.90
19007;DHT22;9636;47.382;8.480;2023-05-19T08:04:40;19.20;99.90
19007;DHT22;9636;47.382;8.480;2023-05-19T08:07:07;19.20;99.90
19007;DHT22;9636;47.382;8.480;2023-05-19T08:09:33;19.20;99.90
19007;DHT22;9636;47.382;8.480;2023-05-19T08:12:00;19.20;99.90
19007;DHT22;9636;47.382;8.480;2023-05-19T08:14:29;19.20;99.90
19007;DHT22;9636;47.382;8.480;2023-05-19T08:16:57;19.20;99.90
19007;DHT22;9636;47.382;8.480;2023-05-19T08:19:25;19.30;99.90
19007;DHT22;9636;47.382;8.480;2023-05-19T08:21:52;19.30;99.90
19007;DHT22;9636;47.382;8.480;2023-05-19T08:24:20;19.30;99.90
19007;DHT22;9636;47.382;8.480;2023-05-19T08:26:46;19.30;99.90
19007;DHT22;9636;47.382;8.480;2023-05-19T08:29:13;19.30;99.90
19007;DHT22;9636;47.382;8.480;2023-05-19T08:31:40;19.30;99.90
19007;DHT22;9636;47.382;8.480;2023-05-19T08:34:07;19.40;99.90
19007;DHT22;9636;47.382;8.480;2023-05-19T08:36:35;19.40;99.90
19007;DHT22;9636;47.382;8.480;2023-05-19T08:39:02;19.40;99.90
19007;DHT22;9636;47.382;8.480;2023-05-19T08:41:29;19.40;99.90
19007;DHT22;9636;47.382;8.480;2023-05-19T08:43:56;19.50;99.90
19007;DHT22;9636;47.382;8.480;2023-05-19T08:46:24;19.60;99.90
19007;DHT22;9636;47.382;8.480;2023-05-19T08:48:53;19.60;99.90
19007;DHT22;9636;47.382;8.480;2023-05-19T08:51:29;19.70;99.90
19007;DHT22;9636;47.382;8.480;2023-05-19T08:54:07;19.70;99.90
19007;DHT22;9636;47.382;8.480;2023-05-19T08:56:35;19.70;99.90
19007;DHT22;9636;47.382;8.480;2023-05-19T08:59:03;19.80;99.80
19007;DHT22;9636;47.382;8.480;2023-05-19T09:01:31;19.80;99.70
19007;DHT22;9636;47.382;8.480;2023-05-19T09:03:58;19.80;99.70
19007;DHT22;9636;47.382;8.480;2023-05-19T09:06:25;19.80;99.70
19007;DHT22;9636;47.382;8.480;2023-05-19T09:08:52;19.80;99.70
19007;DHT22;9636;47.382;8.480;2023-05-19T09:11:20;19.80;99.70
19007;DHT22;9636;47.382;8.480;2023-05-19T09:13:47;19.90;99.60
19007;DHT22;9636;47.382;8.480;2023-05-19T09:16:15;19.90;99.70
19007;DHT22;9636;47.382;8.480;2023-05-19T09:18:53;19.90;99.70
19007;DHT22;9636;47.382;8.480;2023-05-19T09:21:26;19.90;99.60
19007;DHT22;9636;47.382;8.480;2023-05-19T09:23:55;19.90;99.60
19007;DHT22;9636;47.382;8.480;2023-05-19T09:26:23;19.90;99.60
19007;DHT22;9636;47.382;8.480;2023-05-19T09:28:50;19.90;99.50
19007;DHT22;9636;47.382;8.480;2023-05-19T09:31:17;20.00;99.50
19007;DHT22;9636;47.382;8.480;2023-05-19T09:33:44;20.00;99.40
19007;DHT22;9636;47.382;8.480;2023-05-19T09:36:10;20.00;99.40
19007;DHT22;9636;47.382;8.480;2023-05-19T09:38:38;20.10;99.30
19007;DHT22;9636;47.382;8.480;2023-05-19T09:41:06;20.10;99.30
19007;DHT22;9636;47.382;8.480;2023-05-19T09:43:34;20.10;99.20
19007;DHT22;9636;47.382;8.480;2023-05-19T09:46:03;20.30;99.20
19007;DHT22;9636;47.382;8.480;2023-05-19T09:48:30;20.30;99.00
19007;DHT22;9636;47.382;8.480;2023-05-19T09:50:58;20.50;98.90
19007;DHT22;9636;47.382;8.480;2023-05-19T09:53:25;20.50;98.80
19007;DHT22;9636;47.382;8.480;2023-05-19T09:55:54;20.60;98.80
19007;DHT22;9636;47.382;8.480;2023-05-19T09:58:23;20.60;98.80
19007;DHT22;9636;47.382;8.480;2023-05-19T10:00:52;20.60;98.80
19007;DHT22;9636;47.382;8.480;2023-05-19T10:03:20;20.60;98.80
19007;DHT22;9636;47.382;8.480;2023-05-19T10:05:48;20.70;98.80
19007;DHT22;9636;47.382;8.480;2023-05-19T10:08:16;20.70;98.80
19007;DHT22;9636;47.382;8.480;2023-05-19T10:10:45;20.80;97.50
19007;DHT22;9636;47.382;8.480;2023-05-19T10:13:12;20.80;98.10
19007;DHT22;9636;47.382;8.480;2023-05-19T10:15:40;20.80;98.00
19007;DHT22;9636;47.382;8.480;2023-05-19T10:18:09;20.80;98.10
19007;DHT22;9636;47.382;8.480;2023-05-19T10:20:38;20.80;98.10
19007;DHT22;9636;47.382;8.480;2023-05-19T10:23:05;20.90;98.30
19007;DHT22;9636;47.382;8.480;2023-05-19T10:25:33;21.00;98.60
19007;DHT22;9636;47.382;8.480;2023-05-19T10:28:04;21.10;98.30
19007;DHT22;9636;47.382;8.480;2023-05-19T10:30:34;21.10;98.30
19007;DHT22;9636;47.382;8.480;2023-05-19T10:33:04;21.20;98.40
19007;DHT22;9636;47.382;8.480;2023-05-19T10:35:58;21.30;98.50
19007;DHT22;9636;47.382;8.480;2023-05-19T10:38:39;21.30;98.40
19007;DHT22;9636;47.382;8.480;2023-05-19T10:41:11;21.40;98.40
19007;DHT22;9636;47.382;8.480;2023-05-19T10:43:53;21.40;98.30
19007;DHT22;9636;47.382;8.480;2023-05-19T10:46:23;21.60;98.10
19007;DHT22;9636;47.382;8.480;2023-05-19T10:48:50;21.70;98.00
19007;DHT22;9636;47.382;8.480;2023-05-19T10:51:19;21.70;97.80
19007;DHT22;9636;47.382;8.480;2023-05-19T10:53:46;21.90;97.70
19007;DHT22;9636;47.382;8.480;2023-05-19T10:56:27;22.20;97.40
19007;DHT22;9636;47.382;8.480;2023-05-19T10:58:58;22.40;97.30
19007;DHT22;9636;47.382;8.480;2023-05-19T11:01:30;22.40;97.00
19007;DHT22;9636;47.382;8.480;2023-05-19T11:04:03;22.40;97.00
19007;DHT22;9636;47.382;8.480;2023-05-19T11:06:32;22.50;97.00
19007;DHT22;9636;47.382;8.480;2023-05-19T11:09:01;22.50;97.00
19007;DHT22;9636;47.382;8.480;2023-05-19T11:11:44;22.50;96.90
19007;DHT22;9636;47.382;8.480;2023-05-19T11:14:11;22.60;96.80
19007;DHT22;9636;47.382;8.480;2023-05-19T11:16:39;22.80;96.60
19007;DHT22;9636;47.382;8.480;2023-05-19T11:19:07;22.90;96.20
19007;DHT22;9636;47.382;8.480;2023-05-19T11:21:46;23.20;95.90
19007;DHT22;9636;47.382;8.480;2023-05-19T11:24:32;23.20;95.70
19007;DHT22;9636;47.382;8.480;2023-05-19T11:27:18;23.20;95.80
19007;DHT22;9636;47.382;8.480;2023-05-19T11:29:46;23.20;95.70
19007;DHT22;9636;47.382;8.480;2023-05-19T11:32:14;23.30;95.50
19007;DHT22;9636;47.382;8.480;2023-05-19T11:34:42;23.40;95.40
19007;DHT22;9636;47.382;8.480;2023-05-19T11:37:11;23.60;95.20
19007;DHT22;9636;47.382;8.480;2023-05-19T11:39:38;23.80;94.80
19007;DHT22;9636;47.382;8.480;2023-05-19T11:42:07;24.10;94.50
19007;DHT22;9636;47.382;8.480;2023-05-19T11:44:34;24.20;94.30
19007;DHT22;9636;47.382;8.480;2023-05-19T11:47:01;24.10;94.20
19007;DHT22;9636;47.382;8.480;2023-05-19T11:49:27;24.40;93.80
19007;DHT22;9636;47.382;8.480;2023-05-19T11:51:55;24.50;93.70
19007;DHT22;9636;47.382;8.480;2023-05-19T11:54:28;24.60;93.40
19007;DHT22;9636;47.382;8.480;2023-05-19T11:56:56;24.40;93.70
19007;DHT22;9636;47.382;8.480;2023-05-19T11:59:28;24.20;94.00
19007;DHT22;9636;47.382;8.480;2023-05-19T12:01:57;23.90;94.30
19007;DHT22;9636;47.382;8.480;2023-05-19T12:04:23;23.80;94.50
19007;DHT22;9636;47.382;8.480;2023-05-19T12:06:50;23.80;94.50
19007;DHT22;9636;47.382;8.480;2023-05-19T12:09:18;23.70;94.50
19007;DHT22;9636;47.382;8.480;2023-05-19T12:11:46;23.60;94.70
19007;DHT22;9636;47.382;8.480;2023-05-19T12:14:13;23.60;94.80
19007;DHT22;9636;47.382;8.480;2023-05-19T12:16:40;23.50;94.80
19007;DHT22;9636;47.382;8.480;2023-05-19T12:19:07;23.50;94.90
19007;DHT22;9636;47.382;8.480;2023-05-19T12:21:35;23.50;94.70
19007;DHT22;9636;47.382;8.480;2023-05-19T12:24:02;23.50;94.80
19007;DHT22;9636;47.382;8.480;2023-05-19T12:26:30;23.50;94.90
19007;DHT22;9636;47.382;8.480;2023-05-19T12:28:58;23.50;94.90
19007;DHT22;9636;47.382;8.480;2023-05-19T12:31:26;23.50;94.60
19007;DHT22;9636;47.382;8.480;2023-05-19T12:33:52;23.60;94.70
19007;DHT22;9636;47.382;8.480;2023-05-19T12:36:22;23.50;94.70
19007;DHT22;9636;47.382;8.480;2023-05-19T12:38:53;23.60;94.60
19007;DHT22;9636;47.382;8.480;2023-05-19T12:41:20;23.60;94.60
19007;DHT22;9636;47.382;8.480;2023-05-19T12:43:47;23.60;94.50
19007;DHT22;9636;47.382;8.480;2023-05-19T12:46:17;23.50;94.30
19007;DHT22;9636;47.382;8.480;2023-05-19T12:48:45;23.50;94.50
19007;DHT22;9636;47.382;8.480;2023-05-19T12:51:15;23.50;94.40
19007;DHT22;9636;47.382;8.480;2023-05-19T12:53:43;23.50;94.70
19007;DHT22;9636;47.382;8.480;2023-05-19T12:56:11;23.50;94.50
19007;DHT22;9636;47.382;8.480;2023-05-19T12:58:39;23.50;94.50
19007;DHT22;9636;47.382;8.480;2023-05-19T13:01:06;23.50;94.50
19007;DHT22;9636;47.382;8.480;2023-05-19T13:03:39;23.50;94.40
19007;DHT22;9636;47.382;8.480;2023-05-19T13:06:07;23.40;94.50
19007;DHT22;9636;47.382;8.480;2023-05-19T13:08:36;23.50;94.60
19007;DHT22;9636;47.382;8.480;2023-05-19T13:11:03;23.70;94.00
19007;DHT22;9636;47.382;8.480;2023-05-19T13:13:30;23.80;93.90
19007;DHT22;9636;47.382;8.480;2023-05-19T13:15:57;23.90;94.00
19007;DHT22;9636;47.382;8.480;2023-05-19T13:18:24;23.80;93.70
19007;DHT22;9636;47.382;8.480;2023-05-19T13:20:53;23.90;94.00
19007;DHT22;9636;47.382;8.480;2023-05-19T13:23:20;23.90;94.00
19007;DHT22;9636;47.382;8.480;2023-05-19T13:25:48;23.90;94.00
19007;DHT22;9636;47.382;8.480;2023-05-19T13:28:15;23.90;93.60
19007;DHT22;9636;47.382;8.480;2023-05-19T13:30:42;23.90;93.70
19007;DHT22;9636;47.382;8.480;2023-05-19T13:33:09;23.80;94.10
19007;DHT22;9636;47.382;8.480;2023-05-19T13:35:37;23.90;93.60
19007;DHT22;9636;47.382;8.480;2023-05-19T13:38:06;23.90;93.80
19007;DHT22;9636;47.382;8.480;2023-05-19T13:40:34;24.10;93.60
19007;DHT22;9636;47.382;8.480;2023-05-19T13:43:04;24.10;93.60
19007;DHT22;9636;47.382;8.480;2023-05-19T13:45:31;24.00;93.60
19007;DHT22;9636;47.382;8.480;2023-05-19T13:47:58;23.90;93.80
19007;DHT22;9636;47.382;8.480;2023-05-19T13:50:28;23.90;94.00
19007;DHT22;9636;47.382;8.480;2023-05-19T13:52:55;23.90;94.00
19007;DHT22;9636;47.382;8.480;2023-05-19T13:55:23;23.90;94.00
19007;DHT22;9636;47.382;8.480;2023-05-19T13:57:51;23.90;94.00
19007;DHT22;9636;47.382;8.480;2023-05-19T14:00:18;24.00;93.70
19007;DHT22;9636;47.382;8.480;2023-05-19T14:02:45;24.00;93.60
19007;DHT22;9636;47.382;8.480;2023-05-19T14:05:12;24.10;93.90
19007;DHT22;9636;47.382;8.480;2023-05-19T14:07:39;24.00;93.80
19007;DHT22;9636;47.382;8.480;2023-05-19T14:10:07;23.90;93.90
19007;DHT22;9636;47.382;8.480;2023-05-19T14:12:36;23.90;94.10
19007;DHT22;9636;47.382;8.480;2023-05-19T14:15:04;23.80;94.00
19007;DHT22;9636;47.382;8.480;2023-05-19T14:17:31;23.80;94.10
19007;DHT22;9636;47.382;8.480;2023-05-19T14:19:59;23.70;94.30
19007;DHT22;9636;47.382;8.480;2023-05-19T14:22:27;23.60;94.20
19007;DHT22;9636;47.382;8.480;2023-05-19T14:24:54;23.60;94.40
19007;DHT22;9636;47.382;8.480;2023-05-19T14:27:20;23.50;94.40
19007;DHT22;9636;47.382;8.480;2023-05-19T14:29:48;23.50;94.40
19007;DHT22;9636;47.382;8.480;2023-05-19T14:32:15;23.40;94.60
19007;DHT22;9636;47.382;8.480;2023-05-19T14:34:42;23.40;94.60
19007;DHT22;9636;47.382;8.480;2023-05-19T14:37:09;23.40;95.00
19007;DHT22;9636;47.382;8.480;2023-05-19T14:39:35;23.40;94.70
19007;DHT22;9636;47.382;8.480;2023-05-19T14:42:02;23.40;94.70
19007;DHT22;9636;47.382;8.480;2023-05-19T14:44:29;23.30;94.80
19007;DHT22;9636;47.382;8.480;2023-05-19T14:46:58;23.20;94.90
19007;DHT22;9636;47.382;8.480;2023-05-19T14:49:25;23.20;94.90
19007;DHT22;9636;47.382;8.480;2023-05-19T14:51:52;23.20;95.00
19007;DHT22;9636;47.382;8.480;2023-05-19T14:54:19;23.20;95.00
19007;DHT22;9636;47.382;8.480;2023-05-19T14:56:45;23.20;95.00
19007;DHT22;9636;47.382;8.480;2023-05-19T14:59:12;23.20;94.80
19007;DHT22;9636;47.382;8.480;2023-05-19T15:01:39;23.20;94.90
19007;DHT22;9636;47.382;8.480;2023-05-19T15:04:07;23.20;95.00
19007;DHT22;9636;47.382;8.480;2023-05-19T15:06:34;23.10;95.00
19007;DHT22;9636;47.382;8.480;2023-05-19T15:09:01;23.10;95.20
19007;DHT22;9636;47.382;8.480;2023-05-19T15:11:28;23.10;95.30
19007;DHT22;9636;47.382;8.480;2023-05-19T15:13:54;23.00;95.30
19007;DHT22;9636;47.382;8.480;2023-05-19T15:16:21;23.00;95.30
19007;DHT22;9636;47.382;8.480;2023-05-19T15:18:48;23.00;95.30
19007;DHT22;9636;47.382;8.480;2023-05-19T15:21:17;22.90;95.30
19007;DHT22;9636;47.382;8.480;2023-05-19T15:23:44;22.90;95.40
19007;DHT22;9636;47.382;8.480;2023-05-19T15:26:11;22.90;95.40
19007;DHT22;9636;47.382;8.480;2023-05-19T15:28:37;22.80;95.50
19007;DHT22;9636;47.382;8.480;2023-05-19T15:31:04;22.90;95.50
19007;DHT22;9636;47.382;8.480;2023-05-19T15:33:31;22.80;95.60
19007;DHT22;9636;47.382;8.480;2023-05-19T15:35:58;22.70;95.60
19007;DHT22;9636;47.382;8.480;2023-05-19T15:38:26;22.70;95.70
19007;DHT22;9636;47.382;8.480;2023-05-19T15:40:53;22.70;95.70
19007;DHT22;9636;47.382;8.480;2023-05-19T15:43:19;22.70;95.80
19007;DHT22;9636;47.382;8.480;2023-05-19T15:45:46;22.60;95.80
19007;DHT22;9636;47.382;8.480;2023-05-19T15:48:16;22.60;95.80
19007;DHT22;9636;47.382;8.480;2023-05-19T15:50:43;22.60;95.80
19007;DHT22;9636;47.382;8.480;2023-05-19T15:53:10;22.50;95.90